Résultats des foulées de Lescar 2015

Foulées de Lescar Résultats course 10km du 23 octobre 2016

  Foulées de LESCAR   Course     10km    
                 
Clt Nom Prénom Clt/Sexe Sexe Clt/Cat. Cat. Club Temps
1 LASSERRE Kévin 1 M 1 SE   00:39:51
2 SANCHEZ GARCIA Ignacio 2 M 2 SE Pau 00:39:53
3 MAGNOU LUDOVIC 3 M 3 SE BILLERE 00:41:20
4 IGLESIAS RAPHAEL 4 M 4 SE BILLERE 00:43:07
5 CLAVERIE Patrick 5 M 1 V1 Pau 00:43:22
6 MARQUES Pascal 6 M 5 SE Les Coureurs du Soubestre 00:44:12
7 LAROCHELLE Cedric 7 M 1 JU Bounique 00:44:26
8 PINERO Juan Carlos 8 M 2 V1 AC Mourenx 00:45:47
9 BOURDA Jordi 9 M 6 SE Aviron Bayonnais 00:46:02
10 RUBIO Philippe 10 M 7 SE Oloron 00:46:04
11 JAVIBORE Hervé 11 M 8 SE Tyrosse 00:46:20
12 ALPHONSE FELIX DAMIEN 12 M 9 SE FCO 00:46:30
13 DITTHAVONG KEO 13 M 3 V1 ASM PAU 00:46:42
14 DUFAU Vincent 14 M 4 V1 Pardies Pietat 00:46:53
15 LAFARGUE Ludovic 15 M 10 SE Laa Mondrans 00:47:03
16 GROSBORS Thomas 16 M 11 SE Pau Triathlon 00:47:13
17 BOUTET Ludovic 17 M 5 V1 Artix 00:47:15
18 LAVEDRINE Vincent 18 M 12 SE Lons 00:47:30
19 NOGUES Benoit 19 M 13 SE Borderes 00:47:55
20 GEVREY Alain 20 M 1 V3   00:48:14
21 ARRIVE JOEL 21 M 6 V1 UZEIN 00:49:30
22 ANGEL ALEXANDRE 22 M 14 SE PAU 00:49:49
23 PARMENTIEL Jean Louis 23 M 7 V1 Uzein 00:49:53
24 VANDEWYNAGAERDE VICTOR 24 M 1 ES MASLACQ 00:49:55
25 VASQUEZ Dominique 25 M 1 V2 ASM Pau 00:49:58
26 BEDIN Bernard 26 M 2 V2 Monein 00:50:06
27 CAZENAVE Ludovic 27 M 15 SE Artigueloutan 00:50:09
28 LABASTIE Romain 28 M 2 JU Salies de Bearn 00:50:15
29 LAFITTE DORIAN 29 M 16 SE ARTHEZ DE BEARN 00:50:23
30 MOUNAIX Jean Charles 30 M 3 V2 Lys 00:50:49
31 PALENGAT PATRICK 31 M 17 SE MOURENX 00:50:56
32 VILLAUME DAMIEN 32 M 18 SE CABIDOS 00:50:58
33 PEYRE Philippe 33 M 19 SE Oloron 00:51:01
34 MARTEL BERENGERE 1 F 1 ES LA ROCHELLE TRIATHLON 00:51:03
35 DANIELLOT MARIE 2 F 1 SE ALPAC 00:51:06
36 VAN MEIRHAEGUE STEVEN 34 M 8 V1 BOUGARBER 00:51:09
37 MOLINA BRUNO 35 M 4 V2 LUCQ DE BEARN 00:51:13
38 GARCIA Carlos 36 M 9 V1 Bosdarros 00:51:19
39 SABALOT DAVID 37 M 20 SE BRIGNAC LA PLAINE 00:51:23
40 GARROS FLORENT 38 M 10 V1 BENEJACQ 00:51:45
41 CALLEAU Jeremy 39 M 21 SE Lons 00:51:48
42 LAFFORE Serge 40 M 11 V1 Bielle 00:51:58
43 CAETANO DAVID 41 M 12 V1 SAINT CASTIN 00:52:04
44 GERAULT SYLVAIN 42 M 5 V2 LESCAR 00:52:06
45 BARDOT ERIC 43 M 13 V1 THEZE 00:52:10
46 COMBY FREDERIC 44 M 22 SE ARBUS RUNNING 00:52:17
47 PLORMEL EMILIEN 45 M 23 SE PAU 00:52:25
48 POEY Christophe 46 M 14 V1 Uzein 00:52:28
49 MELON FREDERIC 47 M 15 V1 ASM PAU 00:52:50
50 LE GOAER OLIVIER 48 M 24 SE PAU 00:52:52
51 HERVOIR IAN 49 M 2 ES MONEIN 00:52:58
52 LEBOURG MAXIME 50 M 1 CA SAUVAGNON 00:53:00
53 ARCIS Pascal 51 M 25 SE Ogeu 00:53:04
54 ROUANNE JULIEN 52 M 26 SE AIGLE DE PAU 00:53:14
55 MONTAUBAN Frederic 53 M 16 V1 Morlaas 00:53:29
56 LESCUDE Hervé 54 M 27 SE Poey de Lescar 00:53:38
57 LARROUSSE Aurélie 3 F 2 SE Asson 00:53:46
58 JOANBON CAROLINE 4 F 3 SE BEYRIE EN BEARN 00:53:56
59 COENE Florent 55 M 28 SE Billere 00:54:01
60 MANSO ROBIN 56 M 3 JU PAU 00:54:04
61 ETCHEVERRY JEAN-BAPTISTE 57 M 29 SE LONS 00:54:06
62 BREION XAVIER 58 M 30 SE RIUPEYROUS 00:54:08
63 GAOUYAT Matthieu 59 M 31 SE Narcastet 00:54:14
64 TORRES GREGORY 60 M 2 V3 PAU 00:54:20
65 BRU Sylvain 61 M 32 SE Oloron 00:54:21
66 CABANNE Julien 62 M 33 SE Barlest 00:54:25
67 BAY CAMILLE 5 F 4 SE PAU 00:54:26
68 ALPHONSE FELIX LAETITIA 6 F 5 SE FCO 00:54:29
69 PALET BALOUE Alain 63 M 6 V2 Audejos 00:54:32
70 SALAUN Alexis 64 M 17 V1 Beyrie en Bearn 00:54:41
71 LAGIERE BERNARD 65 M 7 V2 ALFORTVILLE 00:55:21
72 ANDRE Jean claude 66 M 18 V1 Oloron 00:55:33
73 LASCARAY Patrick 67 M 8 V2 Vic en Bigorre 00:55:35
74 PERJUZAN THIERRY 68 M 19 V1 JURANCON 00:55:44
75 BAUDRON Pascal 69 M 9 V2 Lons 00:55:46
76 COMMENGES Michel 70 M 10 V2 Cardesse 00:55:53
77 CASSOURROUME MARINA 7 F 6 SE BORDES 00:56:08
78 ORENSANZ JENNIFER 8 F 7 SE PAU 00:56:15
79 ?Dossard 2880 71 M 34 SE   00:56:34
80 SEGOT JEAN MARIE 72 M 1 V4 ASCT 00:56:42
81 SALABERT FRANCK 73 M 11 V2 SERRES CASTET 00:56:51
82 DUMOUCHEL Cedric 74 M 35 SE Nousty 00:57:12
83 SUBERVIELLE Francois 75 M 20 V1 Pau 00:57:17
84 CHAMPOMIER Bertrand 76 M 36 SE Serres Castet 00:57:19
85 INACIO JEREMY 77 M 37 SE PAU 00:57:21
86 DUPIN XAVIER 78 M 21 V1 AIGLE DE PAU 00:57:35
87 SOUNOSTE Marc 79 M 38 SE Borderes 00:57:39
88 CHIPOY Frederic 80 M 12 V2 Monein 00:57:44
89 RAUFASTE Jean Claude 81 M 3 V3 CU Pau 00:57:51
90 BELLOCQ Thierry 82 M 39 SE Lescar 00:57:59
91 CAZAUX Thierry 83 M 22 V1 Serres Castet 00:58:01
92 MATHIEU Fernand 84 M 13 V2 Angers 00:58:02
93 LANSALOT CHRISTIAN 85 M 4 V3 MONT 00:58:42
94 MARTEL MONIQUE 9 F 1 V2 MONEIN 00:58:45
95 BRUNEL Philippe 86 M 14 V2 Saint Faust 00:58:46
96 LE LUHERNE GILDAS 87 M 23 V1 LA TRIBU 64 00:58:59
97 MARCELLIN HENRY 88 M 5 V3 ASM PAU 01:00:00
98 PARRAVICINI OCTAVIO 89 M 24 V1 LESCAR 01:00:36
99 POUTS Fabrice 90 M 25 V1 Doumy 01:00:54
100 VARGAS Jairo 91 M 40 SE Aigles de Pau 01:00:55
101 ?Dossard 363 92 M 41 SE   01:00:55
102 HILLOULIN PHILIPPE 93 M 15 V2 BOUGARBER 01:00:57
103 LUCIGUI Gaetan 94 M 42 SE Pontacq 01:00:57
104 ETASSE Sebastien 95 M 26 V1 Pau 01:00:59
105 HERVOIR THIERRY 96 M 16 V2 MONEIN 01:01:03
106 PUCHEU HENRI 97 M 2 V4 NARCASTET 01:01:13
107 BONIFACE SEBASTIEN 98 M 43 SE LESCAR 01:01:15
108 FEDOU JOSEPH 99 M 4 JU ARBUS RUNNING 01:01:17
109 BOIGNET DENIS 100 M 17 V2 BORDES 01:01:26
110 DEMOY Marc 101 M 18 V2 Pau Pyrenées Aventure 01:01:34
111 PAINOT ISABELLE 10 F 1 V1 PARIS 01:01:41
112 CHAPUT Gerard 102 M 19 V2 Mourenx 01:01:45
113 JUNGAS LUDOVIC 103 M 44 SE PAU 01:02:02
114 MALBERT THOMAS 104 M 27 V1 LESCAR 01:02:06
115 PAINDAVOINE Estelle 11 F 2 V1 Club du Soubestre 01:02:17
116 HERNANDEZ Antoine 105 M 28 V1 Les Coureurs du Soubestre 01:02:18
117 RIBERA CECILE 12 F 8 SE ARBUS RUNNING 01:02:41
118 VERSTAVEL GAELLE 13 F 9 SE PAU 01:02:54
119 IRUYOO-BROQUE BERTRAND 106 M 45 SE PAU 01:02:58
120 GAPAILLARD Gibert 107 M 3 V4 Pau 01:03:04
121 BRENNETOT Jean Michel 108 M 20 V2 Lee 01:03:10
122 BASCUGNANA PIERRE 109 M 46 SE PAU 01:03:12
123 BIOU CAROLINE 14 F 3 V1 PAU 01:03:13
124 LAHON-LAHITTE FRANCK 110 M 29 V1 PAU 01:03:18
125 ERBIN BERNADETTE 15 F 2 V2 DENGUIN 01:03:23
126 CRABOS JEREMY 111 M 47 SE ARBUS RUNNING 01:03:33
127 RADIGON CHARLOTTE 16 F 10 SE ASM PAU 01:04:14
128 CANDEHORE RAYMONDE 17 F 1 V3 OLORON 01:04:42
129 BIRAUD ELODIE 18 F 11 SE PAU 01:04:47
130 PAKLEPA ALEXANDRE 112 M 48 SE LESCAR 01:04:51
131 MAZOUA Nathalie 19 F 12 SE Borderes 01:05:05
132 LAURANSON BRUNO 113 M 21 V2 PARIS 01:05:19
133 ROYER KATHY 20 F 4 V1 CUP 01:05:35
134 VACHER-VALHERE DIDIER 114 M 22 V2 LESCAR 01:05:48
135 BOUSSAROQUE HUBERT 115 M 23 V2 ARBUS RUNNING 01:05:51
136 HOURDOUILLIE AUDREY 21 F 13 SE DOUMY 01:06:27
137 DARTIGUELONGUE Laura 22 F 2 ES Verdets 01:06:32
138 GRANDEZ JEAN 116 M 30 V1 LONS 01:06:44
139 DELORME Philippe 117 M 31 V1 Pau 01:06:47
140 MONIOT AURELIA 23 F 14 SE BOUGARBER 01:07:16
141 VELGHE Anne 24 F 5 V1 Lescar 01:08:07
142 MOIGNARD ADELINE 25 F 15 SE SERRES CASTET 01:08:38
143 FEDOU ARNAUD 118 M 32 V1 ARBUS RUNNING 01:08:58
144 LASCARAY Francoise 26 F 3 V2 Vic en Bigorre 01:09:01
145 RENARD JACQUELINE 27 F 4 V2 BORDES 01:09:02
146 GASSIOT ANNE SOPHIE 28 F 16 SE ARBUS RUNNING 01:09:11
147 LAZONDE FLORENCE 29 F 17 SE ASCT 01:11:01
148 CLAVARET LAURENCE 30 F 5 V2 CUP 01:11:31
149 BOURDALE-DUFAU SYLVIE 31 F 6 V2 BOUGARBER 01:14:36
150 SIREY CAROLINE 32 F 6 V1 UZOS 01:15:00
151 MEUNIER MATHIEU 119 M 33 V1 UZOS 01:15:02
152 CARRASQUET SABINE 33 F 7 V1 AUSSEVIELLE 01:17:02
153 BRET FRANCOIS XAVIER 120 M 49 SE NAY 01:17:14
154 PEREZ